Time;durP1;ratioP1;P1;durP2;ratioP2;P2;SDS_P1;SDS_P2;PMS_P1;PMS_P2;Temp;Humidity;BMP_temperature;BMP_pressure;BME280_temperature;BME280_humidity;BME280_pressure;Samples;Min_cycle;Max_cycle;Signal;HPM_P1;HPM_P2
2022/03/20 00:00:22;;;;;;;25.17;22.03;;;4.00;99.00;;;4.55;59.57;99013.34;5185791;28;20225;-55
2022/03/20 00:02:56;;;;;;;23.53;21.10;;;4.00;98.90;;;4.60;60.34;99004.56;5185909;28;20191;-54
2022/03/20 00:05:29;;;;;;;23.80;21.37;;;4.00;99.20;;;4.53;60.37;99012.31;5188553;28;20201;-56
2022/03/20 00:08:02;;;;;;;25.50;21.53;;;4.00;99.40;;;4.56;59.51;98999.97;5187161;28;20209;-57
2022/03/20 00:10:37;;;;;;;24.93;22.13;;;4.00;99.00;;;4.67;58.94;99005.34;5183010;28;20214;-56
2022/03/20 00:13:11;;;;;;;24.23;21.83;;;3.90;98.40;;;4.58;58.09;99001.91;5187451;28;20231;-57
2022/03/20 00:15:47;;;;;;;23.80;21.40;;;3.90;98.20;;;4.55;58.72;98999.09;5181010;28;20212;-57
2022/03/20 00:18:23;;;;;;;24.07;21.50;;;4.00;98.80;;;4.62;58.04;99000.56;5186600;28;20203;-55
2022/03/20 00:20:59;;;;;;;22.60;20.30;;;4.00;98.00;;;4.67;57.42;98999.38;5186765;28;20651;-55
2022/03/20 00:23:34;;;;;;;24.47;21.43;;;4.10;97.50;;;4.72;56.62;98995.66;5182700;28;20194;-56
2022/03/20 00:26:08;;;;;;;22.47;20.27;;;4.10;97.10;;;4.61;57.86;98996.25;5183538;28;20223;-55
2022/03/20 00:28:42;;;;;;;22.63;20.23;;;4.10;97.50;;;4.70;57.25;98984.50;5188678;28;20716;-57
2022/03/20 00:31:15;;;;;;;23.20;20.50;;;4.20;97.20;;;4.73;56.38;98997.44;5187612;28;20205;-57
2022/03/20 00:33:48;;;;;;;24.63;21.17;;;4.10;96.60;;;4.72;56.92;98994.03;5181217;28;20307;-54
2022/03/20 00:36:21;;;;;;;22.97;20.63;;;4.20;97.30;;;4.75;57.84;99006.09;5185379;28;20261;-58
2022/03/20 00:38:54;;;;;;;22.80;20.47;;;4.20;97.70;;;4.77;57.35;98997.00;5187031;28;20227;-57
2022/03/20 00:41:29;;;;;;;23.47;21.13;;;4.20;96.80;;;4.76;56.08;98995.22;5191502;28;20218;-56
2022/03/20 00:44:02;;;;;;;22.53;20.10;;;4.10;96.20;;;4.77;56.15;98991.94;5192371;28;20191;-57
2022/03/20 00:46:35;;;;;;;21.67;19.47;;;4.10;96.80;;;4.79;57.05;98995.50;5192938;28;20205;-57
2022/03/20 00:49:08;;;;;;;24.00;21.50;;;4.20;97.50;;;4.82;58.12;98995.81;5187103;28;20228;-58
2022/03/20 00:51:42;;;;;;;24.37;21.80;;;4.20;97.90;;;4.85;58.24;98993.56;5183005;28;20203;-58
2022/03/20 00:54:15;;;;;;;22.70;20.40;;;4.30;98.00;;;4.85;57.90;99001.19;5179058;28;20206;-58
2022/03/20 00:56:49;;;;;;;22.50;20.30;;;4.30;97.20;;;4.89;58.05;98993.16;5186487;28;20200;-58
2022/03/20 00:59:22;;;;;;;24.00;21.50;;;4.30;97.60;;;4.90;57.53;98989.84;5178662;28;20224;-57
2022/03/20 01:01:56;;;;;;;22.70;20.37;;;4.30;96.70;;;4.92;57.39;98992.53;5186917;28;20211;-59
2022/03/20 01:04:29;;;;;;;23.03;20.63;;;4.30;97.30;;;4.86;56.92;98999.53;5190631;28;20194;-58
2022/03/20 01:07:03;;;;;;;21.40;19.10;;;4.20;96.90;;;4.84;57.03;98999.41;5184966;28;20201;-59
2022/03/20 01:09:36;;;;;;;20.97;18.77;;;4.20;96.90;;;4.85;57.13;98988.50;5183400;28;20232;-59
2022/03/20 01:12:11;;;;;;;21.37;19.00;;;4.20;97.10;;;4.86;57.17;98992.81;5182950;28;20198;-58
2022/03/20 01:14:44;;;;;;;22.53;20.23;;;4.20;97.10;;;4.88;57.40;98995.50;5185789;28;20223;-56
2022/03/20 01:17:17;;;;;;;22.33;19.00;;;4.20;97.20;;;4.89;58.47;98998.22;5182801;28;20222;-59
2022/03/20 01:19:51;;;;;;;22.63;20.23;;;4.20;98.20;;;4.84;57.69;98993.44;5188310;28;20229;-58
2022/03/20 01:22:24;;;;;;;22.53;20.20;;;4.10;97.30;;;4.84;58.00;98993.44;5184775;28;20584;-57
2022/03/20 01:24:57;;;;;;;20.70;18.60;;;4.10;97.80;;;4.83;58.27;98994.16;5184710;28;20579;-58
2022/03/20 01:27:31;;;;;;;22.43;19.77;;;4.20;98.30;;;4.83;59.45;98992.53;5193981;28;20202;-57
2022/03/20 01:30:06;;;;;;;22.93;20.23;;;4.10;99.20;;;4.82;60.22;98992.38;5188121;28;20216;-56
2022/03/20 01:32:39;;;;;;;21.67;19.40;;;4.10;99.60;;;4.78;60.42;98993.75;5181360;28;20205;-59
2022/03/20 01:35:12;;;;;;;23.33;20.90;;;4.10;99.80;;;4.81;61.17;98988.97;5184481;28;20222;-58
2022/03/20 01:37:46;;;;;;;22.73;20.20;;;4.10;99.90;;;4.85;61.20;98985.09;5184963;28;20202;-58
2022/03/20 01:40:19;;;;;;;22.53;19.97;;;4.00;99.90;;;4.82;62.18;98980.63;5179081;28;20231;-58
2022/03/20 01:42:53;;;;;;;22.07;19.83;;;4.00;99.90;;;4.71;62.04;98979.56;5185589;28;20201;-59
2022/03/20 01:45:27;;;;;;;22.63;20.30;;;4.00;99.90;;;4.68;62.42;98975.84;5188304;28;20581;-59
2022/03/20 01:48:00;;;;;;;22.60;20.27;;;3.90;99.90;;;4.69;62.87;98972.56;5182528;28;20203;-59
2022/03/20 01:50:33;;;;;;;23.07;20.67;;;3.90;99.90;;;4.69;62.66;98972.56;5180405;28;20232;-56
2022/03/20 01:53:12;;;;;;;22.93;20.67;;;3.90;99.90;;;4.63;62.79;98966.91;5183621;28;20210;-57
2022/03/20 01:55:46;;;;;;;20.87;18.77;;;3.90;99.90;;;4.56;62.82;98969.59;5185249;28;20205;-56
2022/03/20 01:58:21;;;;;;;21.70;19.50;;;3.90;99.90;;;4.58;62.55;98963.00;5184866;28;20201;-57
2022/03/20 02:00:54;;;;;;;22.47;20.07;;;3.80;99.90;;;4.56;62.72;98954.41;5185742;28;20215;-58
2022/03/20 02:03:28;;;;;;;23.63;21.27;;;3.80;99.90;;;4.46;63.10;98955.13;5179448;28;20278;-55
2022/03/20 02:06:01;;;;;;;22.80;20.40;;;3.70;99.90;;;4.42;62.64;98956.47;5184969;28;20242;-58
2022/03/20 02:08:36;;;;;;;24.13;21.57;;;3.70;99.90;;;4.43;62.21;98950.66;5180919;28;20220;-55
2022/03/20 02:11:09;;;;;;;24.13;21.63;;;3.70;99.90;;;4.46;61.49;98953.50;5185862;28;20210;-55
2022/03/20 02:13:44;;;;;;;23.63;21.23;;;3.80;99.90;;;4.48;61.95;98952.00;5191340;28;20269;-57
2022/03/20 02:16:19;;;;;;;23.80;21.30;;;3.80;99.90;;;4.49;62.57;98955.41;5185697;28;20674;-56
2022/03/20 02:18:52;;;;;;;23.73;21.37;;;3.80;99.90;;;4.52;63.45;98958.25;5181454;28;20707;-56
2022/03/20 02:21:40;;;;;;;23.63;21.30;;;3.80;99.90;;;4.50;64.25;98959.75;5181312;28;20208;-57
2022/03/20 02:24:40;;;;;;;24.17;21.73;;;3.70;99.90;;;4.42;65.36;98961.53;5181539;28;20196;-55
2022/03/20 02:27:16;;;;;;;24.97;21.77;;;3.70;99.90;;;4.36;66.12;98963.47;5184366;28;20772;-53
2022/03/20 02:29:53;;;;;;;24.40;21.53;;;3.60;99.90;;;4.37;65.94;98964.34;5188512;28;20771;-54
2022/03/20 02:32:28;;;;;;;23.10;20.80;;;3.50;99.90;;;4.23;65.94;98968.91;5184854;28;20200;-57
2022/03/20 02:35:06;;;;;;;23.37;21.07;;;3.50;99.90;;;4.23;66.62;98962.97;5185548;28;20224;-58
2022/03/20 02:37:43;;;;;;;23.23;20.93;;;3.50;99.90;;;4.16;66.64;98956.41;5182841;28;20197;-57
2022/03/20 02:40:19;;;;;;;25.43;22.83;;;3.40;99.90;;;4.15;67.07;98953.72;5181873;28;20710;-54
2022/03/20 02:42:54;;;;;;;24.13;21.63;;;3.40;99.90;;;4.11;67.28;98951.66;5184355;28;20652;-54
2022/03/20 02:45:30;;;;;;;24.40;21.67;;;3.30;99.90;;;3.98;67.52;98942.84;5196715;28;20285;-57
2022/03/20 02:48:06;;;;;;;25.33;22.50;;;3.30;99.90;;;3.98;66.72;98945.38;5187315;28;20253;-57
2022/03/20 02:50:39;;;;;;;24.77;22.13;;;3.20;99.90;;;3.89;66.07;98939.38;5179142;28;20202;-53
2022/03/20 02:53:14;;;;;;;23.97;21.33;;;3.10;99.90;;;3.90;66.08;98946.25;5183191;28;20581;-54
2022/03/20 02:55:47;;;;;;;25.30;22.60;;;3.20;99.90;;;3.96;66.62;98948.50;5182305;28;20231;-53
2022/03/20 02:58:20;;;;;;;26.27;21.10;;;3.20;99.90;;;4.03;66.69;98951.78;5182434;28;20206;-57
2022/03/20 03:00:54;;;;;;;25.37;22.13;;;3.20;99.90;;;3.94;66.92;98948.31;5181884;28;20205;-57
2022/03/20 03:03:28;;;;;;;26.03;23.33;;;3.20;99.90;;;3.94;66.34;98948.31;5178166;28;20198;-57
2022/03/20 03:06:06;;;;;;;23.20;20.70;;;3.30;99.90;;;4.00;67.58;98948.94;5182536;28;20599;-57
2022/03/20 03:11:31;;;;;;;23.17;20.67;;;3.00;99.90;;;3.64;69.20;98940.22;5182124;28;20210;-56
2022/03/20 03:15:18;;;;;;;24.97;22.37;;;2.90;99.90;;;3.67;68.04;98955.69;5183831;28;20209;-54
2022/03/20 03:16:57;;;;;;;25.73;22.53;;;3.00;99.90;;;3.69;69.04;98956.72;5180237;28;20215;-55
2022/03/20 03:19:30;;;;;;;23.20;20.70;;;3.00;99.90;;;3.64;68.98;98960.44;5182954;28;20222;-54
2022/03/20 03:22:04;;;;;;;26.00;23.30;;;3.00;99.90;;;3.72;69.34;98954.47;5180690;28;20593;-54
2022/03/20 03:24:38;;;;;;;25.67;22.93;;;3.10;99.90;;;3.74;69.17;98960.59;5177376;28;20202;-58
2022/03/20 03:27:11;;;;;;;26.00;22.80;;;3.10;99.90;;;3.79;69.07;98957.78;5184216;28;20209;-57
2022/03/20 03:29:44;;;;;;;23.60;21.10;;;3.20;99.90;;;3.92;69.76;98959.94;5182528;28;20725;-57
2022/03/20 03:32:18;;;;;;;27.77;23.13;;;3.20;99.90;;;3.96;69.68;98961.13;5181388;28;20203;-58
2022/03/20 03:37:42;;;;;;;30.07;24.57;;;3.40;99.90;;;4.13;67.80;98970.41;5181755;28;20204;-58
2022/03/20 03:40:16;;;;;;;27.90;24.27;;;3.50;99.90;;;4.24;67.40;98974.91;5182215;28;20228;-58
2022/03/20 03:42:49;;;;;;;26.43;23.70;;;3.70;99.90;;;4.34;67.72;98977.59;5179619;28;20201;-58
2022/03/20 03:45:23;;;;;;;26.57;23.67;;;3.70;99.90;;;4.43;67.57;98978.50;5186232;28;20201;-56
2022/03/20 03:47:56;;;;;;;24.73;22.23;;;3.80;99.90;;;4.49;68.55;98983.25;5186777;28;20201;-56
2022/03/20 03:50:29;;;;;;;23.83;21.33;;;3.80;99.90;;;4.47;70.00;98984.78;5184470;28;20249;-58
2022/03/20 03:53:03;;;;;;;24.07;21.57;;;3.80;99.90;;;4.48;69.76;98982.38;5177263;28;20208;-58
2022/03/20 03:55:41;;;;;;;24.73;21.53;;;3.70;99.90;;;4.42;69.64;98981.78;5184237;28;20208;-56
2022/03/20 03:58:16;;;;;;;24.10;21.60;;;3.70;99.90;;;4.43;70.20;98987.72;5183050;28;20196;-57
2022/03/20 04:00:49;;;;;;;25.50;22.93;;;3.70;99.90;;;4.49;69.62;98984.19;5183408;28;20199;-54
2022/03/20 04:03:22;;;;;;;26.77;22.37;;;3.80;99.90;;;4.38;69.93;98987.28;5182289;28;20665;-57
2022/03/20 04:06:04;;;;;;;26.10;23.37;;;3.60;99.90;;;4.37;68.62;98990.53;5183351;28;20196;-57
2022/03/20 04:08:37;;;;;;;27.77;24.13;;;3.70;99.90;;;4.33;69.06;98985.94;5181079;28;20314;-55
2022/03/20 04:11:11;;;;;;;26.13;23.30;;;3.60;99.90;;;4.33;68.09;98985.94;5184582;28;20204;-59
2022/03/20 04:13:44;;;;;;;26.93;23.97;;;3.60;99.90;;;4.30;67.87;98990.69;5182752;28;20635;-58
2022/03/20 04:16:18;;;;;;;24.63;22.00;;;3.50;99.90;;;4.25;67.86;98979.22;5187763;28;20229;-57
2022/03/20 04:18:51;;;;;;;25.77;22.97;;;3.60;99.90;;;4.33;68.26;98991.00;5186019;28;20247;-58
2022/03/20 04:21:24;;;;;;;27.80;24.60;;;3.70;99.90;;;4.43;67.90;98983.53;5187439;28;20575;-58
2022/03/20 04:23:57;;;;;;;29.53;24.87;;;3.70;99.90;;;4.46;68.90;98986.41;5189490;28;20206;-57
2022/03/20 04:26:33;;;;;;;25.50;22.77;;;3.80;99.90;;;4.48;69.22;98989.97;5184194;28;20199;-57
2022/03/20 04:29:06;;;;;;;27.10;24.17;;;3.80;99.90;;;4.40;69.21;98983.25;5176974;28;20701;-56
2022/03/20 04:31:40;;;;;;;27.73;24.80;;;3.80;99.90;;;4.42;69.78;98991.91;5184848;28;20664;-56
2022/03/20 04:34:14;;;;;;;26.07;23.50;;;3.80;99.90;;;4.42;70.22;98991.00;5183274;28;20299;-53
2022/03/20 04:36:47;;;;;;;29.03;24.70;;;3.80;99.90;;;4.46;69.69;98978.81;5186132;28;20222;-56
2022/03/20 04:39:20;;;;;;;29.13;25.27;;;3.80;99.90;;;4.50;69.53;98990.13;5184327;28;20227;-55
2022/03/20 04:41:54;;;;;;;29.00;25.87;;;3.80;99.90;;;4.58;68.91;98986.72;5186382;28;20564;-57
2022/03/20 04:44:28;;;;;;;28.80;24.80;;;3.90;99.90;;;4.61;68.62;98979.44;5190808;28;20229;-54
2022/03/20 04:47:01;;;;;;;27.50;24.60;;;3.90;99.90;;;4.66;68.36;98984.91;5184427;28;20202;-55
2022/03/20 05:00:58;;;;;;;26.23;23.23;;;3.90;99.90;;;4.45;71.02;99001.44;5185002;28;20201;-57
2022/03/20 05:03:34;;;;;;;28.53;25.03;;;3.70;99.90;;;4.49;70.33;99001.91;5186512;28;20690;-58
2022/03/20 05:06:07;;;;;;;27.83;25.03;;;3.70;99.90;;;4.33;71.12;98998.59;5186606;28;20192;-57
2022/03/20 05:08:40;;;;;;;28.23;25.27;;;3.70;99.90;;;4.35;70.79;99007.22;5184873;28;20226;-57
2022/03/20 05:14:05;;;;;;;28.23;25.23;;;3.70;99.90;;;4.31;70.56;99006.75;5185790;28;20207;-58
2022/03/20 05:16:38;;;;;;;26.43;23.53;;;3.60;99.90;;;4.34;71.30;99013.00;5184624;28;20675;-58
2022/03/20 05:19:11;;;;;;;28.37;25.27;;;3.60;99.90;;;4.34;72.07;99010.50;5184310;28;20234;-56
2022/03/20 05:21:44;;;;;;;26.97;24.07;;;3.70;99.90;;;4.39;71.75;99016.03;5184832;28;20206;-56
2022/03/20 05:24:17;;;;;;;28.73;25.13;;;3.70;99.90;;;4.45;71.79;99021.69;5184211;28;20195;-58
2022/03/20 05:26:51;;;;;;;26.20;23.37;;;3.70;99.90;;;4.48;71.98;99020.34;5184716;28;20198;-56
2022/03/20 05:29:25;;;;;;;29.20;26.10;;;3.80;99.90;;;4.54;71.92;99027.66;5183965;28;20220;-57
2022/03/20 05:31:59;;;;;;;37.63;27.63;;;3.80;99.90;;;4.53;71.77;99015.75;5185013;28;20676;-55
2022/03/20 05:34:33;;;;;;;27.43;24.07;;;3.80;99.90;;;4.51;72.91;99023.19;5183409;28;20196;-56
2022/03/20 05:37:08;;;;;;;26.13;23.40;;;3.80;99.90;;;4.47;73.13;99036.28;5184633;28;20228;-56
2022/03/20 05:39:41;;;;;;;27.10;24.23;;;3.80;99.90;;;4.42;72.95;99037.47;5186414;28;20231;-57
2022/03/20 05:42:14;;;;;;;26.97;23.97;;;3.70;99.90;;;4.46;72.62;99038.66;5184445;28;20211;-58
2022/03/20 05:44:50;;;;;;;27.83;24.57;;;3.70;99.90;;;4.51;72.86;99035.84;5186470;28;20217;-56
2022/03/20 05:47:23;;;;;;;29.20;25.67;;;3.80;99.90;;;4.59;71.93;99030.66;5184090;28;20193;-57
2022/03/20 05:49:56;;;;;;;30.20;26.97;;;3.90;99.90;;;4.72;70.09;99043.75;5186526;28;20224;-55
2022/03/20 05:52:31;;;;;;;31.00;27.70;;;4.10;99.90;;;4.82;67.25;99049.00;5185275;28;20203;-56
2022/03/20 05:55:05;;;;;;;30.47;26.77;;;4.20;99.90;;;4.97;66.33;99047.06;5185440;28;20680;-58
2022/03/20 06:00:33;;;;;;;30.93;26.07;;;4.50;99.90;;;5.34;61.85;99046.47;5184768;28;20221;-55
2022/03/20 06:03:06;;;;;;;30.33;26.70;;;4.70;99.90;;;5.49;61.33;99052.09;5185156;28;20193;-54
2022/03/20 06:05:40;;;;;;;30.23;27.03;;;4.80;99.90;;;5.57;61.21;99057.91;5185068;28;20199;-58
2022/03/20 06:08:13;;;;;;;29.67;26.47;;;5.00;99.90;;;5.71;61.27;99044.91;5183132;28;20207;-57
2022/03/20 06:10:47;;;;;;;28.47;25.43;;;5.10;99.90;;;5.88;61.16;99046.50;5186260;28;20198;-57
2022/03/20 06:13:20;;;;;;;30.93;27.30;;;5.20;99.90;;;6.00;61.98;99049.34;5184355;28;20205;-56
2022/03/20 06:15:57;;;;;;;29.50;26.27;;;5.40;99.90;;;6.12;63.45;99050.47;5186406;28;20234;-57
2022/03/20 06:18:30;;;;;;;29.40;26.30;;;5.50;99.90;;;6.13;63.90;99056.47;5183432;28;20751;-56
2022/03/20 06:21:05;;;;;;;27.73;24.83;;;5.40;99.90;;;6.21;65.49;99061.50;5184857;28;20230;-57
2022/03/20 06:23:39;;;;;;;34.93;31.27;;;5.40;99.90;;;6.23;66.19;99057.44;5184138;28;20204;-55
2022/03/20 06:26:12;;;;;;;33.10;29.67;;;5.40;99.90;;;6.21;66.62;99058.03;5186918;28;20209;-59
2022/03/20 06:28:46;;;;;;;31.20;27.90;;;5.30;99.90;;;6.38;65.48;99060.53;5185373;28;20690;-58
2022/03/20 06:31:22;;;;;;;29.30;26.20;;;5.40;99.90;;;6.56;67.57;99063.88;5187593;28;20556;-59
2022/03/20 06:34:04;;;;;;;27.83;24.87;;;5.60;99.90;;;6.84;66.98;99068.91;5185594;28;20202;-56
2022/03/20 06:36:37;;;;;;;28.40;25.40;;;5.80;99.90;;;6.82;65.33;99070.44;5184200;28;20305;-59
2022/03/20 06:39:10;;;;;;;27.00;24.10;;;5.90;99.90;;;6.83;65.41;99067.13;5185602;28;20236;-58
2022/03/20 06:41:43;;;;;;;28.40;25.33;;;5.80;99.90;;;6.97;65.65;99066.75;5183841;28;20194;-57
2022/03/20 06:44:19;;;;;;;30.10;25.17;;;5.90;99.90;;;7.15;66.06;99083.66;5190993;28;20674;-57
2022/03/20 06:46:54;;;;;;;26.57;23.73;;;6.10;99.90;;;7.51;63.25;99074.09;5183160;28;20201;-58
2022/03/20 06:49:28;;;;;;;28.53;25.40;;;6.40;99.90;;;7.53;62.10;99060.75;5180971;28;20251;-58
2022/03/20 06:52:01;;;;;;;30.27;25.27;;;6.50;99.90;;;7.77;58.02;99069.63;5182064;28;20217;-57
2022/03/20 06:54:34;;;;;;;28.47;25.53;;;6.90;99.90;;;8.09;54.71;99059.69;5183853;28;20568;-57
2022/03/20 06:57:07;;;;;;;29.33;26.27;;;7.10;97.60;;;8.22;54.15;99056.53;5188330;28;20228;-57
2022/03/20 06:59:40;;;;;;;30.10;26.90;;;7.40;96.90;;;8.00;53.29;99069.06;5180168;28;20736;-59
2022/03/20 07:02:18;;;;;;;28.27;25.37;;;7.30;96.00;;;7.79;54.08;99062.13;5179090;28;20195;-58
2022/03/20 07:04:53;;;;;;;28.47;25.47;;;7.20;96.60;;;8.03;53.41;99071.88;5183897;28;20230;-58
2022/03/20 07:07:26;;;;;;;29.87;26.77;;;7.30;96.10;;;8.24;53.24;99074.47;5183165;28;20197;-58
2022/03/20 07:09:59;;;;;;;30.27;26.80;;;7.40;96.10;;;8.51;52.11;99071.78;5185174;28;20230;-59
2022/03/20 07:12:32;;;;;;;28.77;25.73;;;7.60;95.50;;;8.68;50.71;99079.97;5186067;28;20218;-58
2022/03/20 07:15:06;;;;;;;27.57;24.70;;;7.90;94.40;;;8.90;50.88;99080.06;5184554;28;20202;-56
2022/03/20 07:17:40;;;;;;;29.33;26.20;;;8.10;94.80;;;9.19;50.96;99070.63;5180465;28;20678;-58
2022/03/20 07:20:13;;;;;;;28.47;25.53;;;8.40;94.50;;;9.29;50.58;99079.03;5181083;28;20586;-60
2022/03/20 07:22:49;;;;;;;28.53;25.57;;;8.60;93.60;;;9.47;48.03;99066.13;5181724;28;20199;-58
2022/03/20 07:31:03;;;;;;;28.50;25.60;;;9.10;92.20;;;10.12;45.72;99081.44;5176243;28;20198;-59
2022/03/20 07:33:39;;;;;;;28.10;24.30;;;9.40;90.80;;;10.20;45.38;99087.16;5175338;28;20254;-58
2022/03/20 07:36:12;;;;;;;27.93;24.83;;;9.60;90.50;;;10.18;44.91;99079.38;5178140;28;20203;-55
2022/03/20 07:38:46;;;;;;;29.53;26.37;;;9.70;90.10;;;10.18;44.86;99081.91;5174705;28;20253;-58
2022/03/20 07:41:19;;;;;;;27.00;24.20;;;9.50;89.90;;;10.16;45.01;99078.38;5177106;28;20701;-57
2022/03/20 07:43:52;;;;;;;29.43;26.47;;;9.50;89.60;;;10.34;43.91;99081.50;5182799;28;20574;-57
2022/03/20 07:46:26;;;;;;;29.23;26.13;;;9.70;89.20;;;10.56;43.72;99079.84;5186085;28;20209;-58
2022/03/20 07:49:02;;;;;;;26.33;23.53;;;9.80;89.50;;;10.65;44.00;99082.19;5188939;28;20746;-57
2022/03/20 07:51:35;;;;;;;27.67;24.73;;;10.00;88.50;;;10.88;43.17;99083.94;5186304;28;20407;-58
2022/03/20 07:54:08;;;;;;;27.07;24.27;;;10.20;87.80;;;11.12;42.80;99078.88;5187221;28;20670;-55
2022/03/20 07:56:41;;;;;;;28.73;25.75;;;10.40;88.00;;;10.98;44.05;99077.84;5187028;28;20726;-57
2022/03/20 07:59:16;;;;;;;29.33;26.13;;;10.30;88.70;;;11.12;43.28;99081.44;5188106;28;20232;-55
2022/03/20 08:01:49;;;;;;;27.27;24.55;;;10.50;88.20;;;11.53;41.76;99076.78;5190947;28;20339;-55
2022/03/20 08:04:24;;;;;;;26.15;23.45;;;10.90;86.00;;;11.61;41.55;99074.78;5189651;28;20639;-58
2022/03/20 08:06:57;;;;;;;28.27;25.23;;;11.00;84.90;;;11.58;40.28;99082.25;5191126;28;20216;-56
2022/03/20 08:09:30;;;;;;;27.98;24.75;;;11.00;83.10;;;11.54;41.04;99081.16;5186239;28;20226;-55
2022/03/20 08:12:06;;;;;;;27.48;24.52;;;11.00;83.80;;;11.73;40.91;99080.78;5189281;28;20209;-58
2022/03/20 08:14:59;;;;;;;27.77;24.92;;;11.20;83.40;;;11.84;40.48;99086.69;5185451;28;20206;-58
2022/03/20 08:17:33;;;;;;;27.65;24.67;;;11.30;82.30;;;11.78;40.46;99093.94;5185220;28;20206;-60
2022/03/20 08:20:08;;;;;;;29.10;26.10;;;11.20;82.60;;;12.16;40.10;99084.81;5192916;28;20224;-58
2022/03/20 08:22:42;;;;;;;26.45;23.63;;;11.50;82.00;;;12.17;39.54;99089.13;5187154;28;20210;-58
2022/03/20 08:25:16;;;;;;;27.15;24.45;;;11.80;80.80;;;12.38;39.48;99087.19;5188261;28;20210;-58
2022/03/20 08:27:50;;;;;;;27.00;24.30;;;11.90;80.70;;;12.56;39.01;99094.38;5191052;28;20199;-56
2022/03/20 08:30:23;;;;;;;28.77;25.70;;;12.10;79.50;;;12.46;38.43;99085.16;5187425;28;20218;-58
2022/03/20 08:32:57;;;;;;;27.90;25.10;;;12.00;79.40;;;12.46;38.62;99089.41;5187685;28;20212;-60
2022/03/20 08:35:31;;;;;;;27.35;24.50;;;12.00;80.00;;;12.48;39.57;99088.72;5188977;28;20195;-59
2022/03/20 08:38:04;;;;;;;27.77;24.98;;;12.00;80.70;;;12.83;38.85;99086.00;5192301;28;20287;-60
2022/03/20 08:40:38;;;;;;;30.67;27.45;;;12.30;80.10;;;12.85;37.18;99091.25;5184632;28;20579;-57
2022/03/20 08:43:15;;;;;;;28.25;25.05;;;12.20;78.40;;;12.96;38.38;99094.53;5186653;28;20207;-59
2022/03/20 08:45:49;;;;;;;27.83;24.92;;;12.40;79.70;;;13.21;38.28;99092.81;5184975;28;20229;-59
2022/03/20 08:48:22;;;;;;;26.80;24.17;;;12.70;78.90;;;13.45;37.75;99088.47;5188755;28;20292;-60
2022/03/20 08:50:56;;;;;;;27.05;24.30;;;13.00;78.70;;;13.51;38.14;99083.72;5190959;28;20215;-60
2022/03/20 08:53:33;;;;;;;27.40;24.55;;;13.00;78.40;;;13.75;37.16;99088.66;5182694;28;20206;-59
2022/03/20 08:56:06;;;;;;;27.08;24.40;;;13.30;77.30;;;13.52;36.37;99093.19;5187599;28;20230;-60
2022/03/20 08:58:39;;;;;;;26.27;23.58;;;13.10;75.80;;;13.60;37.23;99092.81;5184504;28;20234;-59
2022/03/20 09:01:13;;;;;;;26.48;23.67;;;13.10;76.70;;;13.78;36.53;99093.13;5185532;28;20217;-59
2022/03/20 09:03:49;;;;;;;27.98;24.92;;;13.40;75.60;;;13.80;36.15;99077.00;5185740;28;20290;-60
2022/03/20 09:06:24;;;;;;;25.20;22.58;;;13.40;74.70;;;14.13;35.45;99077.34;5194759;28;20620;-59
2022/03/20 09:08:57;;;;;;;25.98;23.38;;;13.80;74.60;;;14.05;34.97;99081.13;5185254;28;20232;-60
2022/03/20 09:11:30;;;;;;;26.23;23.63;;;13.70;73.60;;;14.14;34.91;99086.88;5186253;28;20199;-59
2022/03/20 09:14:03;;;;;;;25.30;22.77;;;13.60;74.10;;;13.89;35.19;99089.56;5186889;28;20210;-60
2022/03/20 09:19:28;;;;;;;26.08;23.48;;;13.50;72.60;;;14.22;35.62;99098.50;5183385;28;20597;-58
2022/03/20 09:22:03;;;;;;;25.88;23.27;;;13.70;73.60;;;14.36;35.68;99100.25;5186697;28;20195;-59
2022/03/20 09:24:36;;;;;;;24.05;21.65;;;13.90;74.00;;;14.35;35.37;99095.91;5183652;28;20731;-60
2022/03/20 09:27:09;;;;;;;26.30;23.70;;;13.80;74.20;;;14.39;34.60;99103.03;5184617;28;20213;-60
2022/03/20 09:29:42;;;;;;;26.67;23.80;;;13.90;73.60;;;14.62;34.72;99104.47;5177790;28;20233;-59
2022/03/20 09:32:15;;;;;;;26.63;23.95;;;14.10;72.60;;;14.68;34.45;99101.41;5183347;28;20209;-59
2022/03/20 09:34:48;;;;;;;25.75;23.15;;;14.20;72.80;;;14.71;34.22;99095.50;5185564;28;20203;-58
2022/03/20 09:37:23;;;;;;;25.35;22.75;;;14.30;72.20;;;14.39;34.97;99096.97;5186853;28;20202;-59
2022/03/20 09:39:56;;;;;;;26.48;24.05;;;14.10;71.50;;;14.62;34.79;99095.84;5183739;28;20595;-58
2022/03/20 09:42:29;;;;;;;25.95;23.40;;;14.30;72.00;;;14.75;34.80;99102.66;5182178;28;20207;-60
2022/03/20 09:45:02;;;;;;;25.40;22.90;;;14.40;71.70;;;14.78;35.07;99106.28;5183669;28;20202;-60
2022/03/20 09:47:36;;;;;;;25.00;22.38;;;14.40;74.00;;;14.98;34.71;99110.06;5185672;28;20187;-59
2022/03/20 09:50:12;;;;;;;24.92;22.50;;;14.70;72.70;;;15.17;34.00;99109.47;5185061;28;20685;-59
2022/03/20 09:52:46;;;;;;;24.67;22.17;;;14.70;71.10;;;15.31;34.07;99112.88;5182896;28;20202;-58
2022/03/20 09:55:20;;;;;;;25.73;23.33;;;14.90;71.30;;;15.35;33.77;99119.09;5184534;28;20208;-60
2022/03/20 09:57:57;;;;;;;24.77;22.17;;;14.80;70.90;;;15.46;34.33;99120.59;5182693;28;20334;-58
2022/03/20 10:00:30;;;;;;;25.58;23.02;;;15.00;72.00;;;15.48;34.48;99113.81;5183916;28;20218;-58
2022/03/20 10:03:15;;;;;;;24.67;22.27;;;15.00;72.20;;;15.63;33.76;99117.31;5182969;28;20284;-59
2022/03/20 10:06:07;;;;;;;25.88;23.17;;;15.10;70.80;;;15.59;34.41;99115.34;5179778;28;20237;-59
2022/03/20 10:09:02;;;;;;;25.55;23.05;;;15.10;71.90;;;15.71;33.64;99126.41;5175116;28;20223;-59
2022/03/20 10:11:39;;;;;;;24.73;22.40;;;15.20;71.40;;;15.70;32.60;99116.88;5177654;28;20191;-60
2022/03/20 10:14:16;;;;;;;26.20;23.50;;;15.10;69.20;;;15.56;33.09;99115.16;5182376;28;20209;-59
2022/03/20 10:16:57;;;;;;;25.55;23.05;;;14.80;70.50;;;15.66;33.08;99119.19;5179622;28;20898;-57
2022/03/20 10:19:34;;;;;;;27.08;24.38;;;15.00;70.00;;;15.55;32.55;99118.56;5179324;28;20246;-58
2022/03/20 10:22:09;;;;;;;25.42;22.92;;;15.00;69.70;;;15.44;33.92;99128.22;5180851;28;20293;-58
2022/03/20 10:24:50;;;;;;;27.38;24.58;;;14.90;72.20;;;15.43;33.80;99123.88;5180224;28;20204;-59
2022/03/20 10:27:23;;;;;;;27.02;24.42;;;14.90;71.30;;;15.41;35.30;99122.00;5180390;28;20213;-59
2022/03/20 10:29:59;;;;;;;26.40;23.63;;;15.00;72.80;;;15.77;32.96;99124.19;5181576;28;20219;-59
2022/03/20 10:32:33;;;;;;;23.13;20.92;;;15.20;69.80;;;15.70;33.32;99129.75;5181441;28;20232;-58
2022/03/20 10:35:11;;;;;;;25.25;22.73;;;15.20;70.10;;;15.57;34.16;99132.44;5180921;28;20203;-59
2022/03/20 10:37:55;;;;;;;24.75;22.30;;;15.10;70.30;;;15.68;33.86;99133.06;5184372;28;20213;-59
2022/03/20 10:40:30;;;;;;;26.85;24.08;;;15.10;70.70;;;15.77;34.15;99125.88;5175342;28;22175;-56
2022/03/20 10:43:12;;;;;;;24.75;22.40;;;15.10;71.60;;;15.86;34.07;99135.81;5185267;28;20202;-57
2022/03/20 10:46:00;;;;;;;25.50;23.00;;;15.30;71.00;;;15.97;33.74;99129.59;5182225;28;20277;-58
2022/03/20 10:48:38;;;;;;;24.10;21.80;;;15.40;71.20;;;16.03;33.34;99129.91;5182060;28;20237;-59
2022/03/20 10:51:11;;;;;;;24.45;22.05;;;15.40;70.10;;;16.11;32.59;99127.75;5182753;28;20210;-58
2022/03/20 10:53:56;;;;;;;25.10;22.63;;;15.40;68.40;;;15.95;32.31;99138.91;5182281;28;20198;-57
2022/03/20 10:56:30;;;;;;;25.40;22.88;;;15.40;67.90;;;15.82;32.63;99132.16;5184068;28;20201;-59
2022/03/20 10:59:14;;;;;;;24.35;21.90;;;15.30;68.80;;;16.01;32.98;99134.09;5185285;28;20229;-58
2022/03/20 11:01:48;;;;;;;24.13;21.83;;;15.40;68.70;;;16.12;33.16;99130.44;5182619;28;20194;-57
2022/03/20 11:04:23;;;;;;;25.15;22.63;;;15.40;69.10;;;16.24;33.17;99126.75;5184368;28;20248;-57
2022/03/20 11:06:59;;;;;;;24.80;22.30;;;15.60;70.30;;;16.42;33.44;99136.41;5182592;28;20647;-57
2022/03/20 11:09:33;;;;;;;24.38;21.98;;;15.80;70.00;;;16.50;32.75;99134.22;5178479;28;20230;-58
2022/03/20 11:12:09;;;;;;;23.27;21.05;;;15.90;69.00;;;16.67;32.30;99132.53;5187829;28;20210;-57
2022/03/20 11:14:44;;;;;;;23.75;21.45;;;16.00;69.80;;;16.75;31.60;99132.97;5178589;28;20205;-54
2022/03/20 11:17:22;;;;;;;24.60;21.95;;;16.20;67.70;;;16.67;31.85;99140.28;5185514;28;20553;-55